createdAt,value
2023-10-10T00:01:06.071Z,15.06
2023-10-10T00:03:36.011Z,15.02
2023-10-10T00:06:07.665Z,15.00
2023-10-10T00:08:44.945Z,14.96
2023-10-10T00:11:15.781Z,14.95
2023-10-10T00:13:46.732Z,14.90
2023-10-10T00:16:21.279Z,14.87
2023-10-10T00:18:50.150Z,14.85
2023-10-10T00:21:24.619Z,14.83
2023-10-10T00:23:52.471Z,14.82
2023-10-10T00:26:22.177Z,14.81
2023-10-10T00:28:58.317Z,14.82
2023-10-10T00:31:27.996Z,14.83
2023-10-10T00:33:56.439Z,14.81
2023-10-10T00:36:28.526Z,14.79
2023-10-10T00:39:07.011Z,14.76
2023-10-10T00:41:45.801Z,14.73
2023-10-10T00:44:14.960Z,14.71
2023-10-10T00:46:41.791Z,14.69
2023-10-10T00:49:15.321Z,14.66
2023-10-10T00:51:42.729Z,14.64
2023-10-10T00:54:24.465Z,14.61
2023-10-10T00:56:56.956Z,14.59
2023-10-10T00:59:30.984Z,14.56
2023-10-10T01:01:57.733Z,14.57
2023-10-10T01:04:36.876Z,14.57
2023-10-10T01:07:10.048Z,14.55
2023-10-10T01:09:52.714Z,14.52
2023-10-10T01:12:19.389Z,14.49
2023-10-10T01:14:45.965Z,14.47
2023-10-10T01:17:15.137Z,14.46
2023-10-10T01:19:45.549Z,14.45
2023-10-10T01:22:23.937Z,14.46
2023-10-10T01:24:55.827Z,14.48
2023-10-10T01:27:22.902Z,14.50
2023-10-10T01:29:51.693Z,14.51
2023-10-10T01:32:19.453Z,14.53
2023-10-10T01:34:46.249Z,14.48
2023-10-10T01:37:16.279Z,14.45
2023-10-10T01:39:52.819Z,14.41
2023-10-10T01:42:25.029Z,14.38
2023-10-10T01:44:53.317Z,14.35
2023-10-10T01:47:26.694Z,14.32
2023-10-10T01:49:59.394Z,14.25
2023-10-10T01:52:26.711Z,14.23
2023-10-10T01:54:55.907Z,14.23
2023-10-10T01:57:23.141Z,14.23
2023-10-10T01:59:50.797Z,14.19
2023-10-10T02:02:20.086Z,14.16
2023-10-10T02:04:47.099Z,14.14
2023-10-10T02:07:32.220Z,14.13
2023-10-10T02:10:14.601Z,14.11
2023-10-10T02:12:45.896Z,14.09
2023-10-10T02:15:14.609Z,14.06
2023-10-10T02:17:52.444Z,14.05
2023-10-10T02:20:34.695Z,14.01
2023-10-10T02:23:19.833Z,13.97
2023-10-10T02:25:47.841Z,13.94
2023-10-10T02:28:17.279Z,13.95
2023-10-10T02:30:47.105Z,13.93
2023-10-10T02:33:20.702Z,13.90
2023-10-10T02:35:57.279Z,13.87
2023-10-10T02:38:41.285Z,13.84
2023-10-10T02:41:21.950Z,13.81
2023-10-10T02:43:57.923Z,13.78
2023-10-10T02:46:40.155Z,13.76
2023-10-10T02:49:15.185Z,13.77
2023-10-10T02:51:44.441Z,13.79
2023-10-10T02:54:24.664Z,13.76
2023-10-10T02:56:52.167Z,13.72
2023-10-10T02:59:23.165Z,13.69
2023-10-10T03:02:10.405Z,13.68
2023-10-10T03:04:55.568Z,13.66
2023-10-10T03:07:31.874Z,13.66
2023-10-10T03:10:27.886Z,13.66
2023-10-10T03:13:05.314Z,13.66
2023-10-10T03:15:34.438Z,13.66
2023-10-10T03:18:09.636Z,13.63
2023-10-10T03:20:51.197Z,13.62
2023-10-10T03:23:17.704Z,13.64
2023-10-10T03:26:05.100Z,13.66
2023-10-10T03:28:35.686Z,13.69
2023-10-10T03:31:10.301Z,13.72
2023-10-10T03:33:43.776Z,13.78
2023-10-10T03:36:19.352Z,13.83
2023-10-10T03:38:51.288Z,13.84
2023-10-10T03:41:25.382Z,13.87
2023-10-10T03:44:12.006Z,13.93
2023-10-10T03:46:50.520Z,13.97
2023-10-10T03:49:35.873Z,14.02
2023-10-10T03:52:21.257Z,14.08
2023-10-10T03:55:06.308Z,14.09
2023-10-10T03:57:51.258Z,14.12
2023-10-10T04:00:36.509Z,14.14
2023-10-10T04:03:21.974Z,14.16
2023-10-10T04:06:07.282Z,14.17
2023-10-10T04:08:52.348Z,14.19
2023-10-10T04:11:37.570Z,14.20
2023-10-10T04:14:22.635Z,14.22
2023-10-10T04:17:07.779Z,14.23
2023-10-10T04:19:53.158Z,14.24
2023-10-10T04:22:37.990Z,14.24
2023-10-10T04:25:23.379Z,14.25
2023-10-10T04:28:08.235Z,14.26
2023-10-10T04:30:54.320Z,14.26
2023-10-10T04:33:39.362Z,14.26
2023-10-10T04:36:27.406Z,14.27
2023-10-10T04:39:14.198Z,14.26
2023-10-10T04:41:58.978Z,14.28
2023-10-10T04:44:43.984Z,14.30
2023-10-10T04:47:29.217Z,14.31
2023-10-10T04:50:14.544Z,14.33
2023-10-10T04:52:59.675Z,14.33
2023-10-10T04:55:44.619Z,14.35
2023-10-10T04:58:30.076Z,14.35
2023-10-10T05:01:19.686Z,14.36
2023-10-10T05:04:04.641Z,14.36
2023-10-10T05:06:49.955Z,14.36
2023-10-10T05:09:34.887Z,14.34
2023-10-10T05:12:19.719Z,14.35
2023-10-10T05:15:04.652Z,14.34
2023-10-10T05:17:50.136Z,14.34
2023-10-10T05:20:35.362Z,14.33
2023-10-10T05:23:20.811Z,14.32
2023-10-10T05:25:52.073Z,14.32
2023-10-10T05:28:23.320Z,14.30
2023-10-10T05:30:50.035Z,14.31
2023-10-10T05:33:20.757Z,14.31
2023-10-10T05:35:50.718Z,14.30
2023-10-10T05:38:18.033Z,14.31
2023-10-10T05:40:45.020Z,14.32
2023-10-10T05:43:16.725Z,14.33
2023-10-10T05:45:45.036Z,14.33
2023-10-10T05:48:12.907Z,14.33
2023-10-10T05:50:42.199Z,14.34
2023-10-10T05:53:09.241Z,14.35
2023-10-10T05:55:39.412Z,14.33
2023-10-10T05:58:06.864Z,14.31
2023-10-10T06:00:37.860Z,14.30
2023-10-10T06:03:08.534Z,14.28
2023-10-10T06:05:35.513Z,14.26
2023-10-10T06:08:03.163Z,14.25
2023-10-10T06:10:32.788Z,14.25
2023-10-10T06:13:05.005Z,14.22
2023-10-10T06:15:34.814Z,14.24
2023-10-10T06:18:15.278Z,14.22
2023-10-10T06:20:58.195Z,14.21
2023-10-10T06:23:33.810Z,14.19
2023-10-10T06:26:00.806Z,14.16
2023-10-10T06:28:27.523Z,14.15
2023-10-10T06:30:54.884Z,14.15
2023-10-10T06:33:28.970Z,14.14
2023-10-10T06:36:02.403Z,14.15
2023-10-10T06:38:29.060Z,14.18
2023-10-10T06:40:56.651Z,14.18
2023-10-10T06:43:24.121Z,14.19
2023-10-10T06:45:56.242Z,14.21
2023-10-10T06:48:23.597Z,14.24
2023-10-10T06:50:51.138Z,14.26
2023-10-10T06:53:36.640Z,14.27
2023-10-10T06:56:17.080Z,14.31
2023-10-10T06:58:44.803Z,14.35
2023-10-10T07:01:12.964Z,14.36
2023-10-10T07:03:48.190Z,14.37
2023-10-10T07:06:14.870Z,14.41
2023-10-10T07:08:42.283Z,14.44
2023-10-10T07:11:11.962Z,14.44
2023-10-10T07:13:45.182Z,14.46
2023-10-10T07:16:12.526Z,14.47
2023-10-10T07:18:43.253Z,14.49
2023-10-10T07:21:31.764Z,14.50
2023-10-10T07:24:06.244Z,14.53
2023-10-10T07:26:42.192Z,14.53
2023-10-10T07:29:42.434Z,14.55
2023-10-10T07:32:17.835Z,14.57
2023-10-10T07:34:50.789Z,14.59
2023-10-10T07:37:18.666Z,14.60
2023-10-10T07:39:57.648Z,14.63
2023-10-10T07:42:31.816Z,14.67
2023-10-10T07:44:59.219Z,14.70
2023-10-10T07:47:30.764Z,14.73
2023-10-10T07:50:00.758Z,14.81
2023-10-10T07:52:27.579Z,14.86
2023-10-10T07:54:54.964Z,14.88
2023-10-10T07:57:27.905Z,14.92
2023-10-10T07:59:58.299Z,14.98
2023-10-10T08:02:26.665Z,15.03
2023-10-10T08:04:58.709Z,15.05
2023-10-10T08:07:25.859Z,15.09
2023-10-10T08:10:13.051Z,15.14
2023-10-10T08:12:40.793Z,15.17
2023-10-10T08:15:26.560Z,15.20
2023-10-10T08:18:00.255Z,15.23
2023-10-10T08:20:52.710Z,15.27
2023-10-10T08:23:25.639Z,15.34
2023-10-10T08:25:53.644Z,15.38
2023-10-10T08:28:23.711Z,15.44
2023-10-10T08:30:51.433Z,15.47
2023-10-10T08:33:18.240Z,15.54
2023-10-10T08:35:44.888Z,15.55
2023-10-10T08:38:14.697Z,15.63
2023-10-10T08:40:44.284Z,15.67
2023-10-10T08:43:10.829Z,15.73
2023-10-10T08:45:41.434Z,15.75
2023-10-10T08:48:13.814Z,15.80
2023-10-10T08:50:42.112Z,15.84
2023-10-10T08:53:14.064Z,15.86
2023-10-10T08:55:41.854Z,15.87
2023-10-10T08:58:09.307Z,15.88
2023-10-10T09:00:36.633Z,15.89
2023-10-10T09:03:03.870Z,15.96
2023-10-10T09:05:30.796Z,16.01
2023-10-10T09:08:07.471Z,16.05
2023-10-10T09:10:43.342Z,16.12
2023-10-10T09:13:11.230Z,16.19
2023-10-10T09:15:40.089Z,16.21
2023-10-10T09:18:23.618Z,16.26
2023-10-10T09:20:51.951Z,16.32
2023-10-10T09:23:33.213Z,16.34
2023-10-10T09:26:13.560Z,16.38
2023-10-10T09:28:56.715Z,16.38
2023-10-10T09:31:33.270Z,16.40
2023-10-10T09:34:04.504Z,16.44
2023-10-10T09:36:39.070Z,16.46
2023-10-10T09:39:37.329Z,16.46
2023-10-10T09:42:28.948Z,16.51
2023-10-10T09:45:03.001Z,16.55
2023-10-10T09:47:45.218Z,16.63
2023-10-10T09:50:24.049Z,16.73
2023-10-10T09:52:55.346Z,16.80
2023-10-10T09:55:24.257Z,16.87
2023-10-10T09:58:02.349Z,16.96
2023-10-10T10:00:48.709Z,17.06
2023-10-10T10:03:32.572Z,17.18
2023-10-10T10:06:03.119Z,17.27
2023-10-10T10:08:48.761Z,17.40
2023-10-10T10:11:27.375Z,17.54
2023-10-10T10:14:22.152Z,17.65
2023-10-10T10:16:55.487Z,17.81
2023-10-10T10:19:29.095Z,17.88
2023-10-10T10:22:14.924Z,17.92
2023-10-10T10:24:47.245Z,17.98
2023-10-10T10:27:26.566Z,18.02
2023-10-10T10:30:30.548Z,18.05
2023-10-10T10:33:00.987Z,18.08
2023-10-10T10:36:06.948Z,18.13
2023-10-10T10:38:35.489Z,18.21
2023-10-10T10:41:08.602Z,18.24
2023-10-10T10:43:43.439Z,18.26
2023-10-10T10:46:17.024Z,18.28
2023-10-10T10:48:49.586Z,18.36
2023-10-10T10:51:48.917Z,18.40
2023-10-10T10:54:39.508Z,18.48
2023-10-10T10:57:07.266Z,18.59
2023-10-10T10:59:46.782Z,18.67
2023-10-10T11:02:17.324Z,18.69
2023-10-10T11:04:51.660Z,18.79
2023-10-10T11:07:29.962Z,18.85
2023-10-10T11:10:08.178Z,18.91
2023-10-10T11:12:38.074Z,19.00
2023-10-10T11:15:08.762Z,19.08
2023-10-10T11:17:41.982Z,19.12
2023-10-10T11:20:27.641Z,19.20
2023-10-10T11:22:56.845Z,19.29
2023-10-10T11:25:42.469Z,19.46
2023-10-10T11:28:23.066Z,19.71
2023-10-10T11:30:51.512Z,19.94
2023-10-10T11:33:32.402Z,20.18
2023-10-10T11:36:30.325Z,20.46
2023-10-10T11:39:15.125Z,20.63
2023-10-10T11:41:41.651Z,20.79
2023-10-10T11:44:08.316Z,20.91
2023-10-10T11:46:35.101Z,20.95
2023-10-10T11:49:01.692Z,20.97
2023-10-10T11:51:35.677Z,20.85
2023-10-10T11:54:02.300Z,20.56
2023-10-10T11:56:32.580Z,20.32
2023-10-10T11:58:59.221Z,20.20
2023-10-10T12:01:44.069Z,20.14
2023-10-10T12:04:22.294Z,20.18
2023-10-10T12:06:48.824Z,20.18
2023-10-10T12:09:20.076Z,20.28
2023-10-10T12:11:46.666Z,20.45
2023-10-10T12:14:14.076Z,20.62
2023-10-10T12:16:40.674Z,20.75
2023-10-10T12:19:07.217Z,20.85
2023-10-10T12:21:33.725Z,20.94
2023-10-10T12:24:02.887Z,20.93
2023-10-10T12:26:31.394Z,20.96
2023-10-10T12:28:58.580Z,21.03
2023-10-10T12:31:25.162Z,21.12
2023-10-10T12:33:54.496Z,21.19
2023-10-10T12:36:30.614Z,21.36
2023-10-10T12:38:59.429Z,21.44
2023-10-10T12:41:29.540Z,21.57
2023-10-10T12:43:56.137Z,21.77
2023-10-10T12:46:22.974Z,21.84
2023-10-10T12:48:52.883Z,22.01
2023-10-10T12:51:23.539Z,22.12
2023-10-10T12:53:50.915Z,22.09
2023-10-10T12:56:22.605Z,21.99
2023-10-10T12:59:05.185Z,21.84
2023-10-10T13:01:36.960Z,21.70
2023-10-10T13:04:09.032Z,21.66
2023-10-10T13:06:37.213Z,21.70
2023-10-10T13:09:06.187Z,21.68
2023-10-10T13:11:45.051Z,21.69
2023-10-10T13:14:16.079Z,21.76
2023-10-10T13:16:45.344Z,21.90
2023-10-10T13:19:13.201Z,22.03
2023-10-10T13:21:40.513Z,22.10
2023-10-10T13:24:15.261Z,22.07
2023-10-10T13:26:43.952Z,22.18
2023-10-10T13:29:10.521Z,22.45
2023-10-10T13:31:42.333Z,22.69
2023-10-10T13:34:08.927Z,22.85
2023-10-10T13:36:35.435Z,23.05
2023-10-10T13:39:06.916Z,23.17
2023-10-10T13:41:37.254Z,23.19
2023-10-10T13:44:05.103Z,23.20
2023-10-10T13:46:36.977Z,23.14
2023-10-10T13:49:10.305Z,22.96
2023-10-10T13:51:43.045Z,22.79
2023-10-10T13:54:09.749Z,22.64
2023-10-10T13:56:36.467Z,22.44
2023-10-10T13:59:03.489Z,22.24
2023-10-10T14:01:30.284Z,22.10
2023-10-10T14:04:05.803Z,21.97
2023-10-10T14:06:46.648Z,21.84
2023-10-10T14:09:26.611Z,21.82
2023-10-10T14:12:08.300Z,21.84
2023-10-10T14:14:35.051Z,21.91
2023-10-10T14:17:01.728Z,21.89
2023-10-10T14:19:28.265Z,21.84
2023-10-10T14:21:54.922Z,21.78
2023-10-10T14:24:22.133Z,21.75
2023-10-10T14:26:50.062Z,21.75
2023-10-10T14:29:17.587Z,21.75
2023-10-10T14:31:46.120Z,21.86
2023-10-10T14:34:21.595Z,21.90
2023-10-10T14:36:52.033Z,22.04
2023-10-10T14:39:45.593Z,22.15
2023-10-10T14:42:15.013Z,22.24
2023-10-10T14:44:42.112Z,22.30
2023-10-10T14:47:11.064Z,22.36
2023-10-10T14:49:39.964Z,22.39
2023-10-10T14:52:07.813Z,22.41
2023-10-10T14:54:39.558Z,22.49
2023-10-10T14:57:07.029Z,22.50
2023-10-10T14:59:34.975Z,22.50
2023-10-10T15:02:02.569Z,22.45
2023-10-10T15:04:33.160Z,22.33
2023-10-10T15:07:00.445Z,22.21
2023-10-10T15:09:27.052Z,22.09
2023-10-10T15:11:58.238Z,22.02
2023-10-10T15:14:25.213Z,21.95
2023-10-10T15:16:52.390Z,21.83
2023-10-10T15:19:19.117Z,21.70
2023-10-10T15:21:51.804Z,21.66
2023-10-10T15:24:19.312Z,21.62
2023-10-10T15:26:52.657Z,21.58
2023-10-10T15:29:22.428Z,21.52
2023-10-10T15:31:51.229Z,21.45
2023-10-10T15:34:18.137Z,21.37
2023-10-10T15:36:47.674Z,21.37
2023-10-10T15:39:15.858Z,21.35
2023-10-10T15:41:44.060Z,21.32
2023-10-10T15:44:13.598Z,21.30
2023-10-10T15:46:43.871Z,21.26
2023-10-10T15:49:29.114Z,21.17
2023-10-10T15:52:04.610Z,21.06
2023-10-10T15:54:35.289Z,20.99
2023-10-10T15:57:09.902Z,20.90
2023-10-10T15:59:42.982Z,20.81
2023-10-10T16:02:11.265Z,20.70
2023-10-10T16:04:43.906Z,20.60
2023-10-10T16:07:12.077Z,20.46
2023-10-10T16:09:38.562Z,20.33
2023-10-10T16:12:13.962Z,20.20
2023-10-10T16:14:41.101Z,20.10
2023-10-10T16:17:07.745Z,20.04
2023-10-10T16:19:37.140Z,19.96
2023-10-10T16:22:06.330Z,19.85
2023-10-10T16:24:33.626Z,19.78
2023-10-10T16:27:00.704Z,19.67
2023-10-10T16:29:34.446Z,19.59
2023-10-10T16:32:08.649Z,19.47
2023-10-10T16:34:43.482Z,19.38
2023-10-10T16:37:14.738Z,19.29
2023-10-10T16:39:45.642Z,19.13
2023-10-10T16:42:13.019Z,18.97
2023-10-10T16:44:39.703Z,18.91
2023-10-10T16:47:06.313Z,18.79
2023-10-10T16:49:33.454Z,18.69
2023-10-10T16:52:00.500Z,18.68
2023-10-10T16:54:31.838Z,18.69
2023-10-10T16:56:58.886Z,18.65
2023-10-10T16:59:25.597Z,18.63
2023-10-10T17:01:52.205Z,18.59
2023-10-10T17:04:20.573Z,18.53
2023-10-10T17:06:49.957Z,18.45
2023-10-10T17:09:16.896Z,18.37
2023-10-10T17:11:43.724Z,18.30
2023-10-10T17:14:13.333Z,18.26
2023-10-10T17:16:40.838Z,18.18
2023-10-10T17:19:17.090Z,18.12
2023-10-10T17:21:48.580Z,18.06
2023-10-10T17:24:16.556Z,18.02
2023-10-10T17:26:45.135Z,17.98
2023-10-10T17:29:16.208Z,17.96
2023-10-10T17:31:43.331Z,17.94
2023-10-10T17:34:10.078Z,17.89
2023-10-10T17:36:38.247Z,17.87
2023-10-10T17:39:05.572Z,17.82
2023-10-10T17:41:36.040Z,17.82
2023-10-10T17:44:10.415Z,17.76
2023-10-10T17:46:37.680Z,17.72
2023-10-10T17:49:06.185Z,17.69
2023-10-10T17:51:36.261Z,17.65
2023-10-10T17:54:03.782Z,17.60
2023-10-10T17:56:30.549Z,17.59
2023-10-10T17:58:57.084Z,17.59
2023-10-10T18:01:23.772Z,17.58
2023-10-10T18:03:55.452Z,17.55
2023-10-10T18:06:24.580Z,17.54
2023-10-10T18:09:02.015Z,17.50
2023-10-10T18:11:33.174Z,17.47
2023-10-10T18:13:59.866Z,17.44
2023-10-10T18:16:26.344Z,17.45
2023-10-10T18:18:53.719Z,17.43
2023-10-10T18:21:21.512Z,17.39
2023-10-10T18:23:48.662Z,17.38
2023-10-10T18:26:23.741Z,17.37
2023-10-10T18:28:53.272Z,17.37
2023-10-10T18:31:30.513Z,17.33
2023-10-10T18:33:57.802Z,17.30
2023-10-10T18:36:24.653Z,17.29
2023-10-10T18:38:55.135Z,17.29
2023-10-10T18:41:24.096Z,17.27
2023-10-10T18:43:52.203Z,17.26
2023-10-10T18:46:18.858Z,17.25
2023-10-10T18:48:46.639Z,17.22
2023-10-10T18:51:15.199Z,17.17
2023-10-10T18:53:46.289Z,17.17
2023-10-10T18:56:13.026Z,17.12
2023-10-10T18:58:40.032Z,17.09
2023-10-10T19:01:08.691Z,17.06
2023-10-10T19:03:35.440Z,16.99
2023-10-10T19:06:02.194Z,16.97
2023-10-10T19:10:55.425Z,16.91
2023-10-10T19:13:22.045Z,16.88
2023-10-10T19:15:48.862Z,16.83
2023-10-10T19:18:17.071Z,16.79
2023-10-10T19:20:44.579Z,16.78
2023-10-10T19:23:11.795Z,16.76
2023-10-10T19:25:48.006Z,16.76
2023-10-10T19:28:18.737Z,16.72
2023-10-10T19:30:46.115Z,16.70
2023-10-10T19:33:15.811Z,16.66
2023-10-10T19:35:46.116Z,16.64
2023-10-10T19:38:13.216Z,16.62
2023-10-10T19:40:44.628Z,16.61
2023-10-10T19:43:12.489Z,16.60
2023-10-10T19:45:40.213Z,16.63
2023-10-10T19:48:07.912Z,16.64
2023-10-10T19:50:39.474Z,16.63
2023-10-10T19:53:07.077Z,16.64
2023-10-10T19:55:35.252Z,16.63
2023-10-10T19:58:02.179Z,16.63
2023-10-10T20:00:28.853Z,16.63
2023-10-10T20:02:58.692Z,16.61
2023-10-10T20:05:25.605Z,16.56
2023-10-10T20:07:54.769Z,16.52
2023-10-10T20:10:23.534Z,16.48
2023-10-10T20:12:55.459Z,16.48
2023-10-10T20:15:25.413Z,16.47
2023-10-10T20:17:52.875Z,16.43
2023-10-10T20:20:27.048Z,16.41
2023-10-10T20:22:57.808Z,16.39
2023-10-10T20:25:25.141Z,16.39
2023-10-10T20:27:51.902Z,16.37
2023-10-10T20:30:20.593Z,16.35
2023-10-10T20:32:48.447Z,16.34
2023-10-10T20:35:25.754Z,16.32
2023-10-10T20:37:57.641Z,16.28
2023-10-10T20:40:30.665Z,16.22
2023-10-10T20:43:01.073Z,16.16
2023-10-10T20:45:30.136Z,16.20
2023-10-10T20:47:57.854Z,16.24
2023-10-10T20:50:29.253Z,16.28
2023-10-10T20:52:58.088Z,16.29
2023-10-10T20:55:28.654Z,16.33
2023-10-10T20:57:58.967Z,16.38
2023-10-10T21:00:30.018Z,16.40
2023-10-10T21:02:58.710Z,16.42
2023-10-10T21:05:25.862Z,16.45
2023-10-10T21:07:53.284Z,16.53
2023-10-10T21:10:20.627Z,16.58
2023-10-10T21:12:48.922Z,16.61
2023-10-10T21:15:17.416Z,16.61
2023-10-10T21:18:00.328Z,16.59
2023-10-10T21:20:29.011Z,16.60
2023-10-10T21:23:00.212Z,16.58
2023-10-10T21:25:27.932Z,16.61
2023-10-10T21:27:58.325Z,16.63
2023-10-10T21:30:30.170Z,16.63
2023-10-10T21:32:58.595Z,16.62
2023-10-10T21:35:31.273Z,16.67
2023-10-10T21:37:59.856Z,16.70
2023-10-10T21:40:28.254Z,16.69
2023-10-10T21:42:56.262Z,16.64
2023-10-10T21:45:24.658Z,16.62
2023-10-10T21:47:55.367Z,16.60
2023-10-10T21:50:22.441Z,16.56
2023-10-10T21:52:48.986Z,16.57
2023-10-10T21:55:20.506Z,16.59
2023-10-10T21:57:51.068Z,16.57
2023-10-10T22:00:25.599Z,16.55
2023-10-10T22:02:53.721Z,16.52
2023-10-10T22:05:20.754Z,16.50
2023-10-10T22:07:48.455Z,16.47
2023-10-10T22:10:21.804Z,16.47
2023-10-10T22:12:51.650Z,16.46
2023-10-10T22:15:18.784Z,16.43
2023-10-10T22:17:45.660Z,16.41
2023-10-10T22:20:13.209Z,16.41
2023-10-10T22:22:43.128Z,16.39
2023-10-10T22:25:20.246Z,16.38
2023-10-10T22:27:47.862Z,16.37
2023-10-10T22:30:18.754Z,16.36
2023-10-10T22:32:48.773Z,16.35
2023-10-10T22:35:20.160Z,16.34
2023-10-10T22:37:47.830Z,16.33
2023-10-10T22:40:35.526Z,16.30
2023-10-10T22:43:03.402Z,16.29
2023-10-10T22:45:34.946Z,16.26
2023-10-10T22:48:02.856Z,16.23
2023-10-10T22:50:31.703Z,16.25
2023-10-10T22:53:00.105Z,16.22
2023-10-10T22:55:29.529Z,16.21
2023-10-10T22:57:58.512Z,16.19
2023-10-10T23:00:27.570Z,16.18
2023-10-10T23:02:59.569Z,16.19
2023-10-10T23:05:28.348Z,16.18
2023-10-10T23:07:58.728Z,16.18
2023-10-10T23:10:25.344Z,16.18
2023-10-10T23:12:53.344Z,16.17
2023-10-10T23:15:27.555Z,16.16
2023-10-10T23:18:03.021Z,16.16
2023-10-10T23:20:34.370Z,16.15
2023-10-10T23:23:05.747Z,16.14
2023-10-10T23:25:32.807Z,16.14
2023-10-10T23:27:59.798Z,16.09
2023-10-10T23:30:30.395Z,16.09
2023-10-10T23:32:58.573Z,16.08
2023-10-10T23:35:28.023Z,16.07
2023-10-10T23:38:02.154Z,16.07
2023-10-10T23:40:41.100Z,16.04
2023-10-10T23:43:09.819Z,16.03
2023-10-10T23:45:43.218Z,16.00
2023-10-10T23:48:16.462Z,15.99
2023-10-10T23:50:44.080Z,15.99
2023-10-10T23:53:10.899Z,15.97
2023-10-10T23:55:40.412Z,15.95
2023-10-10T23:58:12.769Z,15.94
